sensor_id;sensor_type;location;lat;lon;timestamp;pressure;altitude;pressure_sealevel;temperature;humidity
10071;BME280;5074;53.720;10.014;2023-06-24T00:00:56;101917.03;;;15.95;100.00
10071;BME280;5074;53.720;10.014;2023-06-24T00:03:25;101905.28;;;15.96;100.00
10071;BME280;5074;53.720;10.014;2023-06-24T00:05:53;101906.88;;;16.02;100.00
10071;BME280;5074;53.720;10.014;2023-06-24T00:08:24;101919.75;;;15.95;100.00
10071;BME280;5074;53.720;10.014;2023-06-24T00:11:02;101885.63;;;15.70;100.00
10071;BME280;5074;53.720;10.014;2023-06-24T00:13:31;101920.25;;;15.81;100.00
10071;BME280;5074;53.720;10.014;2023-06-24T00:15:59;101914.88;;;15.81;100.00
10071;BME280;5074;53.720;10.014;2023-06-24T00:18:27;101904.16;;;15.79;100.00
10071;BME280;5074;53.720;10.014;2023-06-24T00:20:56;101919.63;;;15.74;100.00
10071;BME280;5074;53.720;10.014;2023-06-24T00:23:24;101924.16;;;15.72;100.00
10071;BME280;5074;53.720;10.014;2023-06-24T00:25:53;101937.03;;;15.64;100.00
10071;BME280;5074;53.720;10.014;2023-06-24T00:28:23;101934.28;;;15.66;100.00
10071;BME280;5074;53.720;10.014;2023-06-24T00:30:51;101943.34;;;15.65;100.00
10071;BME280;5074;53.720;10.014;2023-06-24T00:33:19;101931.91;;;15.58;100.00
10071;BME280;5074;53.720;10.014;2023-06-24T00:35:47;101932.25;;;15.49;100.00
10071;BME280;5074;53.720;10.014;2023-06-24T00:38:15;101934.94;;;15.49;100.00
10071;BME280;5074;53.720;10.014;2023-06-24T00:40:44;101935.00;;;15.47;100.00
10071;BME280;5074;53.720;10.014;2023-06-24T00:43:13;101939.69;;;15.42;100.00
10071;BME280;5074;53.720;10.014;2023-06-24T00:45:43;101940.91;;;15.33;100.00
10071;BME280;5074;53.720;10.014;2023-06-24T00:48:14;101944.50;;;15.32;100.00
10071;BME280;5074;53.720;10.014;2023-06-24T00:50:43;101947.44;;;15.26;100.00
10071;BME280;5074;53.720;10.014;2023-06-24T00:53:12;101951.19;;;15.22;100.00
10071;BME280;5074;53.720;10.014;2023-06-24T00:55:40;101943.38;;;15.14;100.00
10071;BME280;5074;53.720;10.014;2023-06-24T00:58:08;101946.03;;;15.16;100.00
10071;BME280;5074;53.720;10.014;2023-06-24T01:00:37;101945.28;;;15.10;100.00
10071;BME280;5074;53.720;10.014;2023-06-24T01:03:06;101948.16;;;15.06;100.00
10071;BME280;5074;53.720;10.014;2023-06-24T01:05:35;101946.50;;;15.02;100.00
10071;BME280;5074;53.720;10.014;2023-06-24T01:08:04;101953.69;;;15.01;100.00
10071;BME280;5074;53.720;10.014;2023-06-24T01:10:32;101951.19;;;14.97;100.00
10071;BME280;5074;53.720;10.014;2023-06-24T01:13:00;101952.28;;;14.91;100.00
10071;BME280;5074;53.720;10.014;2023-06-24T01:15:28;101953.31;;;14.87;100.00
10071;BME280;5074;53.720;10.014;2023-06-24T01:18:01;101950.56;;;14.88;100.00
10071;BME280;5074;53.720;10.014;2023-06-24T01:20:38;101948.13;;;14.81;100.00
10071;BME280;5074;53.720;10.014;2023-06-24T01:23:40;101961.72;;;14.76;100.00
10071;BME280;5074;53.720;10.014;2023-06-24T01:26:22;101957.31;;;14.75;100.00
10071;BME280;5074;53.720;10.014;2023-06-24T01:32:18;101965.53;;;14.70;100.00
10071;BME280;5074;53.720;10.014;2023-06-24T01:34:54;101970.91;;;14.70;100.00
10071;BME280;5074;53.720;10.014;2023-06-24T01:37:29;101975.66;;;14.62;100.00
10071;BME280;5074;53.720;10.014;2023-06-24T01:40:03;101964.03;;;14.60;100.00
10071;BME280;5074;53.720;10.014;2023-06-24T01:42:38;101974.03;;;14.56;100.00
10071;BME280;5074;53.720;10.014;2023-06-24T01:45:12;101965.03;;;14.57;100.00
10071;BME280;5074;53.720;10.014;2023-06-24T01:47:44;101955.56;;;14.44;100.00
10071;BME280;5074;53.720;10.014;2023-06-24T01:50:14;101946.00;;;14.35;100.00
10071;BME280;5074;53.720;10.014;2023-06-24T01:52:45;101958.13;;;14.49;100.00
10071;BME280;5074;53.720;10.014;2023-06-24T01:55:16;101960.97;;;14.44;100.00
10071;BME280;5074;53.720;10.014;2023-06-24T01:57:46;101959.13;;;14.46;100.00
10071;BME280;5074;53.720;10.014;2023-06-24T02:00:17;101963.53;;;14.47;100.00
10071;BME280;5074;53.720;10.014;2023-06-24T02:02:46;101956.47;;;14.45;100.00
10071;BME280;5074;53.720;10.014;2023-06-24T02:05:17;101962.66;;;14.47;100.00
10071;BME280;5074;53.720;10.014;2023-06-24T02:07:48;101966.28;;;14.46;100.00
10071;BME280;5074;53.720;10.014;2023-06-24T02:10:18;101962.72;;;14.45;100.00
10071;BME280;5074;53.720;10.014;2023-06-24T02:12:48;101964.66;;;14.41;100.00
10071;BME280;5074;53.720;10.014;2023-06-24T02:15:17;101970.09;;;14.38;100.00
10071;BME280;5074;53.720;10.014;2023-06-24T02:17:49;101974.59;;;14.38;100.00
10071;BME280;5074;53.720;10.014;2023-06-24T02:20:19;101972.78;;;14.38;100.00
10071;BME280;5074;53.720;10.014;2023-06-24T02:22:48;101970.16;;;14.37;100.00
10071;BME280;5074;53.720;10.014;2023-06-24T02:25:17;101977.34;;;14.36;100.00
10071;BME280;5074;53.720;10.014;2023-06-24T02:27:45;101978.56;;;14.26;100.00
10071;BME280;5074;53.720;10.014;2023-06-24T02:30:14;101975.88;;;14.26;100.00
10071;BME280;5074;53.720;10.014;2023-06-24T02:32:43;101984.22;;;14.18;100.00
10071;BME280;5074;53.720;10.014;2023-06-24T02:35:13;101984.38;;;14.12;100.00
10071;BME280;5074;53.720;10.014;2023-06-24T02:37:41;101993.56;;;14.05;100.00
10071;BME280;5074;53.720;10.014;2023-06-24T02:40:10;101989.53;;;13.90;100.00
10071;BME280;5074;53.720;10.014;2023-06-24T02:42:38;101997.84;;;13.81;100.00
10071;BME280;5074;53.720;10.014;2023-06-24T02:45:07;101999.13;;;13.67;100.00
10071;BME280;5074;53.720;10.014;2023-06-24T02:47:36;102004.53;;;13.66;100.00
10071;BME280;5074;53.720;10.014;2023-06-24T02:50:06;102004.69;;;13.61;100.00
10071;BME280;5074;53.720;10.014;2023-06-24T02:52:37;101997.91;;;13.48;100.00
10071;BME280;5074;53.720;10.014;2023-06-24T02:55:07;101999.09;;;13.37;100.00
10071;BME280;5074;53.720;10.014;2023-06-24T02:57:36;101993.13;;;13.25;100.00
10071;BME280;5074;53.720;10.014;2023-06-24T03:00:06;101991.31;;;13.25;100.00
10071;BME280;5074;53.720;10.014;2023-06-24T03:02:39;101995.00;;;13.21;100.00
10071;BME280;5074;53.720;10.014;2023-06-24T03:05:09;101994.03;;;13.24;100.00
10071;BME280;5074;53.720;10.014;2023-06-24T03:07:39;101998.56;;;13.23;100.00
10071;BME280;5074;53.720;10.014;2023-06-24T03:10:09;102001.25;;;13.21;100.00
10071;BME280;5074;53.720;10.014;2023-06-24T03:12:38;102005.41;;;13.35;100.00
10071;BME280;5074;53.720;10.014;2023-06-24T03:15:06;102000.16;;;13.30;100.00
10071;BME280;5074;53.720;10.014;2023-06-24T03:17:36;102006.38;;;13.31;100.00
10071;BME280;5074;53.720;10.014;2023-06-24T03:20:05;102009.28;;;13.21;100.00
10071;BME280;5074;53.720;10.014;2023-06-24T03:22:35;102003.31;;;13.12;100.00
10071;BME280;5074;53.720;10.014;2023-06-24T03:25:04;102005.09;;;13.11;100.00
10071;BME280;5074;53.720;10.014;2023-06-24T03:27:33;102010.63;;;13.05;100.00
10071;BME280;5074;53.720;10.014;2023-06-24T03:30:01;102005.38;;;13.00;100.00
10071;BME280;5074;53.720;10.014;2023-06-24T03:32:29;102005.31;;;13.03;100.00
10071;BME280;5074;53.720;10.014;2023-06-24T03:34:57;102009.47;;;13.15;100.00
10071;BME280;5074;53.720;10.014;2023-06-24T03:37:26;101999.69;;;13.13;100.00
10071;BME280;5074;53.720;10.014;2023-06-24T03:39:54;102002.47;;;13.10;100.00
10071;BME280;5074;53.720;10.014;2023-06-24T03:42:24;102005.00;;;13.16;100.00
10071;BME280;5074;53.720;10.014;2023-06-24T03:44:52;102006.63;;;13.21;100.00
10071;BME280;5074;53.720;10.014;2023-06-24T03:47:20;101989.91;;;13.12;100.00
10071;BME280;5074;53.720;10.014;2023-06-24T03:49:48;102016.31;;;13.27;100.00
10071;BME280;5074;53.720;10.014;2023-06-24T03:52:16;102011.75;;;13.31;100.00
10071;BME280;5074;53.720;10.014;2023-06-24T03:54:44;102016.03;;;13.40;100.00
10071;BME280;5074;53.720;10.014;2023-06-24T03:57:13;102021.81;;;13.57;100.00
10071;BME280;5074;53.720;10.014;2023-06-24T03:59:42;102019.00;;;13.62;100.00
10071;BME280;5074;53.720;10.014;2023-06-24T04:02:10;102025.25;;;13.62;100.00
10071;BME280;5074;53.720;10.014;2023-06-24T04:04:40;102019.63;;;13.71;100.00
10071;BME280;5074;53.720;10.014;2023-06-24T04:07:08;102025.44;;;13.87;100.00
10071;BME280;5074;53.720;10.014;2023-06-24T04:09:36;102023.44;;;13.94;100.00
10071;BME280;5074;53.720;10.014;2023-06-24T04:12:05;102024.75;;;14.11;100.00
10071;BME280;5074;53.720;10.014;2023-06-24T04:14:33;102031.09;;;14.08;100.00
10071;BME280;5074;53.720;10.014;2023-06-24T04:17:03;102026.31;;;14.18;100.00
10071;BME280;5074;53.720;10.014;2023-06-24T04:19:31;102019.63;;;14.31;100.00
10071;BME280;5074;53.720;10.014;2023-06-24T04:21:59;102013.19;;;14.37;100.00
10071;BME280;5074;53.720;10.014;2023-06-24T04:24:27;102013.06;;;14.41;100.00
10071;BME280;5074;53.720;10.014;2023-06-24T04:26:55;102014.69;;;14.46;100.00
10071;BME280;5074;53.720;10.014;2023-06-24T04:29:24;102011.88;;;14.50;100.00
10071;BME280;5074;53.720;10.014;2023-06-24T04:31:52;102014.31;;;14.58;100.00
10071;BME280;5074;53.720;10.014;2023-06-24T04:34:21;102017.06;;;14.56;100.00
10071;BME280;5074;53.720;10.014;2023-06-24T04:36:49;102016.03;;;14.62;100.00
10071;BME280;5074;53.720;10.014;2023-06-24T04:39:17;102015.09;;;14.63;100.00
10071;BME280;5074;53.720;10.014;2023-06-24T04:41:45;102024.09;;;14.62;100.00
10071;BME280;5074;53.720;10.014;2023-06-24T04:44:14;102024.09;;;14.62;100.00
10071;BME280;5074;53.720;10.014;2023-06-24T04:46:42;102033.78;;;14.68;100.00
10071;BME280;5074;53.720;10.014;2023-06-24T04:49:10;102026.69;;;14.65;100.00
10071;BME280;5074;53.720;10.014;2023-06-24T04:51:40;102024.41;;;14.80;100.00
10071;BME280;5074;53.720;10.014;2023-06-24T04:54:08;102026.09;;;14.84;100.00
10071;BME280;5074;53.720;10.014;2023-06-24T04:56:39;102024.22;;;14.86;100.00
10071;BME280;5074;53.720;10.014;2023-06-24T04:59:07;102023.13;;;14.91;100.00
10071;BME280;5074;53.720;10.014;2023-06-24T05:01:35;102020.38;;;14.93;100.00
10071;BME280;5074;53.720;10.014;2023-06-24T05:04:03;102021.06;;;15.00;100.00
10071;BME280;5074;53.720;10.014;2023-06-24T05:06:31;102024.41;;;15.06;100.00
10071;BME280;5074;53.720;10.014;2023-06-24T05:09:01;102026.06;;;15.10;100.00
10071;BME280;5074;53.720;10.014;2023-06-24T05:11:29;102023.69;;;15.01;100.00
10071;BME280;5074;53.720;10.014;2023-06-24T05:13:57;102028.00;;;15.07;100.00
10071;BME280;5074;53.720;10.014;2023-06-24T05:16:25;102026.84;;;15.14;100.00
10071;BME280;5074;53.720;10.014;2023-06-24T05:18:53;102026.34;;;15.28;100.00
10071;BME280;5074;53.720;10.014;2023-06-24T05:21:21;102018.91;;;15.36;100.00
10071;BME280;5074;53.720;10.014;2023-06-24T05:23:49;102017.84;;;15.40;100.00
10071;BME280;5074;53.720;10.014;2023-06-24T05:26:19;102018.59;;;15.44;100.00
10071;BME280;5074;53.720;10.014;2023-06-24T05:28:47;102021.28;;;15.45;100.00
10071;BME280;5074;53.720;10.014;2023-06-24T05:31:15;102023.75;;;15.52;100.00
10071;BME280;5074;53.720;10.014;2023-06-24T05:33:43;102023.63;;;15.55;100.00
10071;BME280;5074;53.720;10.014;2023-06-24T05:36:11;102024.38;;;15.58;100.00
10071;BME280;5074;53.720;10.014;2023-06-24T05:38:39;102018.84;;;15.63;100.00
10071;BME280;5074;53.720;10.014;2023-06-24T05:41:07;102022.28;;;15.67;100.00
10071;BME280;5074;53.720;10.014;2023-06-24T05:43:37;102022.22;;;15.68;100.00
10071;BME280;5074;53.720;10.014;2023-06-24T05:46:08;102026.53;;;15.74;100.00
10071;BME280;5074;53.720;10.014;2023-06-24T05:48:36;102031.63;;;15.83;100.00
10071;BME280;5074;53.720;10.014;2023-06-24T05:51:04;102039.66;;;15.85;100.00
10071;BME280;5074;53.720;10.014;2023-06-24T05:53:32;102038.69;;;15.86;100.00
10071;BME280;5074;53.720;10.014;2023-06-24T05:56:00;102038.69;;;15.86;100.00
10071;BME280;5074;53.720;10.014;2023-06-24T05:58:28;102039.19;;;15.97;100.00
10071;BME280;5074;53.720;10.014;2023-06-24T06:00:58;102038.44;;;15.93;100.00
10071;BME280;5074;53.720;10.014;2023-06-24T06:03:27;102044.56;;;15.97;100.00
10071;BME280;5074;53.720;10.014;2023-06-24T06:05:55;102044.28;;;16.05;100.00
10071;BME280;5074;53.720;10.014;2023-06-24T06:08:23;102046.63;;;16.14;100.00
10071;BME280;5074;53.720;10.014;2023-06-24T06:10:51;102049.31;;;16.14;100.00
10071;BME280;5074;53.720;10.014;2023-06-24T06:13:20;102051.31;;;16.09;100.00
10071;BME280;5074;53.720;10.014;2023-06-24T06:15:48;102049.38;;;16.12;100.00
10071;BME280;5074;53.720;10.014;2023-06-24T06:18:18;102059.06;;;16.18;100.00
10071;BME280;5074;53.720;10.014;2023-06-24T06:20:46;102055.44;;;16.19;100.00
10071;BME280;5074;53.720;10.014;2023-06-24T06:23:15;102052.50;;;16.25;100.00
10071;BME280;5074;53.720;10.014;2023-06-24T06:25:43;102053.03;;;16.35;100.00
10071;BME280;5074;53.720;10.014;2023-06-24T06:28:15;102049.50;;;16.33;100.00
10071;BME280;5074;53.720;10.014;2023-06-24T06:30:43;102047.63;;;16.35;100.00
10071;BME280;5074;53.720;10.014;2023-06-24T06:33:11;102054.06;;;16.31;100.00
10071;BME280;5074;53.720;10.014;2023-06-24T06:35:41;102066.38;;;16.38;100.00
10071;BME280;5074;53.720;10.014;2023-06-24T06:38:10;102046.44;;;16.42;100.00
10071;BME280;5074;53.720;10.014;2023-06-24T06:40:38;102049.63;;;16.52;100.00
10071;BME280;5074;53.720;10.014;2023-06-24T06:43:06;102045.06;;;16.54;100.00
10071;BME280;5074;53.720;10.014;2023-06-24T06:45:34;102053.78;;;16.61;100.00
10071;BME280;5074;53.720;10.014;2023-06-24T06:48:03;102057.19;;;16.66;100.00
10071;BME280;5074;53.720;10.014;2023-06-24T06:50:33;102060.63;;;16.70;100.00
10071;BME280;5074;53.720;10.014;2023-06-24T06:53:03;102060.75;;;16.66;100.00
10071;BME280;5074;53.720;10.014;2023-06-24T06:55:31;102054.56;;;16.64;100.00
10071;BME280;5074;53.720;10.014;2023-06-24T06:58:00;102054.63;;;16.63;100.00
10071;BME280;5074;53.720;10.014;2023-06-24T07:00:28;102050.84;;;16.67;100.00
10071;BME280;5074;53.720;10.014;2023-06-24T07:02:56;102046.97;;;16.74;100.00
10071;BME280;5074;53.720;10.014;2023-06-24T07:05:24;102056.22;;;16.91;100.00
10071;BME280;5074;53.720;10.014;2023-06-24T07:07:52;102041.19;;;16.83;100.00
10071;BME280;5074;53.720;10.014;2023-06-24T07:10:22;102047.84;;;16.97;100.00
10071;BME280;5074;53.720;10.014;2023-06-24T07:12:50;102044.22;;;16.98;100.00
10071;BME280;5074;53.720;10.014;2023-06-24T07:15:25;102049.34;;;17.04;100.00
10071;BME280;5074;53.720;10.014;2023-06-24T07:17:53;102046.94;;;17.18;100.00
10071;BME280;5074;53.720;10.014;2023-06-24T07:20:22;102049.91;;;17.33;100.00
10071;BME280;5074;53.720;10.014;2023-06-24T07:22:50;102044.13;;;17.42;100.00
10071;BME280;5074;53.720;10.014;2023-06-24T07:25:18;102049.00;;;17.34;100.00
10071;BME280;5074;53.720;10.014;2023-06-24T07:27:47;102059.78;;;17.34;100.00
10071;BME280;5074;53.720;10.014;2023-06-24T07:30:16;102056.94;;;17.37;100.00
10071;BME280;5074;53.720;10.014;2023-06-24T07:32:44;102060.00;;;17.50;100.00
10071;BME280;5074;53.720;10.014;2023-06-24T07:35:12;102066.41;;;17.47;100.00
10071;BME280;5074;53.720;10.014;2023-06-24T07:37:42;102074.22;;;17.55;100.00
10071;BME280;5074;53.720;10.014;2023-06-24T07:40:10;102067.75;;;17.58;100.00
10071;BME280;5074;53.720;10.014;2023-06-24T07:42:39;102062.25;;;17.61;100.00
10071;BME280;5074;53.720;10.014;2023-06-24T07:45:09;102066.38;;;17.69;100.00
10071;BME280;5074;53.720;10.014;2023-06-24T07:47:37;102073.97;;;17.80;100.00
10071;BME280;5074;53.720;10.014;2023-06-24T07:50:05;102066.16;;;17.95;100.00
10071;BME280;5074;53.720;10.014;2023-06-24T07:52:35;102070.19;;;18.05;100.00
10071;BME280;5074;53.720;10.014;2023-06-24T07:55:04;102070.25;;;18.03;100.00
10071;BME280;5074;53.720;10.014;2023-06-24T07:57:32;102063.63;;;18.11;100.00
10071;BME280;5074;53.720;10.014;2023-06-24T08:00:00;102060.97;;;18.09;100.00
10071;BME280;5074;53.720;10.014;2023-06-24T08:02:30;102059.38;;;18.05;100.00
10071;BME280;5074;53.720;10.014;2023-06-24T08:04:58;102057.91;;;18.17;100.00
10071;BME280;5074;53.720;10.014;2023-06-24T08:07:26;102048.56;;;18.24;100.00
10071;BME280;5074;53.720;10.014;2023-06-24T08:09:55;102051.25;;;18.24;100.00
10071;BME280;5074;53.720;10.014;2023-06-24T08:12:23;102046.91;;;18.21;100.00
10071;BME280;5074;53.720;10.014;2023-06-24T08:14:51;102049.53;;;18.23;100.00
10071;BME280;5074;53.720;10.014;2023-06-24T08:17:19;102041.34;;;18.25;100.00
10071;BME280;5074;53.720;10.014;2023-06-24T08:19:48;102045.44;;;18.33;100.00
10071;BME280;5074;53.720;10.014;2023-06-24T08:22:16;102046.66;;;18.45;100.00
10071;BME280;5074;53.720;10.014;2023-06-24T08:24:45;102046.75;;;18.44;100.00
10071;BME280;5074;53.720;10.014;2023-06-24T08:27:13;102044.66;;;18.49;100.00
10071;BME280;5074;53.720;10.014;2023-06-24T08:29:41;102046.19;;;18.54;100.00
10071;BME280;5074;53.720;10.014;2023-06-24T08:32:09;102045.03;;;18.60;100.00
10071;BME280;5074;53.720;10.014;2023-06-24T08:34:37;102040.03;;;18.70;100.00
10071;BME280;5074;53.720;10.014;2023-06-24T08:37:07;102044.88;;;18.82;100.00
10071;BME280;5074;53.720;10.014;2023-06-24T08:39:35;102044.59;;;18.88;100.00
10071;BME280;5074;53.720;10.014;2023-06-24T08:42:05;102040.28;;;19.02;100.00
10071;BME280;5074;53.720;10.014;2023-06-24T08:44:33;102036.72;;;19.01;100.00
10071;BME280;5074;53.720;10.014;2023-06-24T08:47:02;102052.66;;;19.07;100.00
10071;BME280;5074;53.720;10.014;2023-06-24T08:49:30;102040.72;;;19.12;100.00
10071;BME280;5074;53.720;10.014;2023-06-24T08:52:04;102048.34;;;19.21;100.00
10071;BME280;5074;53.720;10.014;2023-06-24T08:54:35;102050.69;;;19.29;100.00
10071;BME280;5074;53.720;10.014;2023-06-24T08:57:06;102045.25;;;19.29;100.00
10071;BME280;5074;53.720;10.014;2023-06-24T08:59:36;102047.91;;;19.30;100.00
10071;BME280;5074;53.720;10.014;2023-06-24T09:02:05;102047.66;;;19.35;100.00
10071;BME280;5074;53.720;10.014;2023-06-24T09:04:34;102044.06;;;19.34;100.00
10071;BME280;5074;53.720;10.014;2023-06-24T09:07:02;102046.28;;;19.43;100.00
10071;BME280;5074;53.720;10.014;2023-06-24T09:09:42;102043.72;;;19.58;100.00
10071;BME280;5074;53.720;10.014;2023-06-24T09:12:11;102048.44;;;19.54;100.00
10071;BME280;5074;53.720;10.014;2023-06-24T09:14:47;102041.56;;;19.65;100.00
10071;BME280;5074;53.720;10.014;2023-06-24T09:17:17;102050.31;;;19.87;100.00
10071;BME280;5074;53.720;10.014;2023-06-24T09:19:45;102054.47;;;19.77;100.00
10071;BME280;5074;53.720;10.014;2023-06-24T09:22:13;102046.19;;;19.80;100.00
10071;BME280;5074;53.720;10.014;2023-06-24T09:24:46;102045.19;;;19.99;100.00
10071;BME280;5074;53.720;10.014;2023-06-24T09:27:15;102048.63;;;20.02;100.00
10071;BME280;5074;53.720;10.014;2023-06-24T09:29:46;102049.94;;;20.11;100.00
10071;BME280;5074;53.720;10.014;2023-06-24T09:32:15;102034.88;;;20.05;100.00
10071;BME280;5074;53.720;10.014;2023-06-24T09:34:43;102041.09;;;20.23;100.00
10071;BME280;5074;53.720;10.014;2023-06-24T09:37:21;102036.81;;;20.19;100.00
10071;BME280;5074;53.720;10.014;2023-06-24T09:39:50;102035.69;;;20.23;100.00
10071;BME280;5074;53.720;10.014;2023-06-24T09:42:20;102027.34;;;20.26;100.00
10071;BME280;5074;53.720;10.014;2023-06-24T09:44:53;102029.28;;;20.24;100.00
10071;BME280;5074;53.720;10.014;2023-06-24T09:47:21;102028.53;;;20.22;100.00
10071;BME280;5074;53.720;10.014;2023-06-24T09:49:52;102027.44;;;20.25;100.00
10071;BME280;5074;53.720;10.014;2023-06-24T09:52:21;102024.91;;;20.38;100.00
10071;BME280;5074;53.720;10.014;2023-06-24T09:54:51;101999.34;;;20.26;100.00
10071;BME280;5074;53.720;10.014;2023-06-24T09:57:29;102022.38;;;20.35;100.00
10071;BME280;5074;53.720;10.014;2023-06-24T09:59:58;102017.22;;;20.46;100.00
10071;BME280;5074;53.720;10.014;2023-06-24T10:02:28;102020.13;;;20.43;100.00
10071;BME280;5074;53.720;10.014;2023-06-24T10:04:59;102013.47;;;20.48;100.00
10071;BME280;5074;53.720;10.014;2023-06-24T10:07:28;102010.72;;;20.64;100.00
10071;BME280;5074;53.720;10.014;2023-06-24T10:09:57;102003.81;;;20.59;100.00
10071;BME280;5074;53.720;10.014;2023-06-24T10:12:26;102008.13;;;20.79;100.00
10071;BME280;5074;53.720;10.014;2023-06-24T10:17:23;102000.50;;;21.00;100.00
10071;BME280;5074;53.720;10.014;2023-06-24T10:19:52;101997.78;;;21.00;100.00
10071;BME280;5074;53.720;10.014;2023-06-24T10:22:22;101990.75;;;21.12;100.00
10071;BME280;5074;53.720;10.014;2023-06-24T10:24:51;102002.69;;;21.09;100.00
10071;BME280;5074;53.720;10.014;2023-06-24T10:27:22;101989.69;;;21.14;100.00
10071;BME280;5074;53.720;10.014;2023-06-24T10:29:51;101993.91;;;21.34;100.00
10071;BME280;5074;53.720;10.014;2023-06-24T10:32:22;101991.31;;;21.47;100.00
10071;BME280;5074;53.720;10.014;2023-06-24T10:34:54;101992.34;;;21.61;100.00
10071;BME280;5074;53.720;10.014;2023-06-24T10:37:23;101995.13;;;21.59;100.00
10071;BME280;5074;53.720;10.014;2023-06-24T10:39:53;101998.03;;;21.56;100.00
10071;BME280;5074;53.720;10.014;2023-06-24T10:42:27;101998.56;;;21.77;100.00
10071;BME280;5074;53.720;10.014;2023-06-24T10:44:57;101989.03;;;21.84;100.00
10071;BME280;5074;53.720;10.014;2023-06-24T10:47:27;101989.50;;;22.06;100.00
10071;BME280;5074;53.720;10.014;2023-06-24T10:49:55;101987.25;;;21.98;100.00
10071;BME280;5074;53.720;10.014;2023-06-24T10:52:24;101979.81;;;21.87;100.00
10071;BME280;5074;53.720;10.014;2023-06-24T10:54:53;101987.75;;;22.05;100.00
10071;BME280;5074;53.720;10.014;2023-06-24T10:57:22;101976.75;;;22.06;100.00
10071;BME280;5074;53.720;10.014;2023-06-24T10:59:53;101978.03;;;22.00;100.00
10071;BME280;5074;53.720;10.014;2023-06-24T11:02:22;101979.19;;;21.96;100.00
10071;BME280;5074;53.720;10.014;2023-06-24T11:04:53;101966.19;;;22.01;100.00
10071;BME280;5074;53.720;10.014;2023-06-24T11:07:23;101971.97;;;22.10;100.00
10071;BME280;5074;53.720;10.014;2023-06-24T11:09:53;101968.38;;;22.09;100.00
10071;BME280;5074;53.720;10.014;2023-06-24T11:12:24;101964.66;;;22.25;100.00
10071;BME280;5074;53.720;10.014;2023-06-24T11:14:57;101959.13;;;22.41;100.00
10071;BME280;5074;53.720;10.014;2023-06-24T11:17:26;101946.31;;;22.55;100.00
10071;BME280;5074;53.720;10.014;2023-06-24T11:19:55;101952.06;;;22.78;100.00
10071;BME280;5074;53.720;10.014;2023-06-24T11:22:24;101966.34;;;22.54;100.00
10071;BME280;5074;53.720;10.014;2023-06-24T11:24:53;101962.59;;;22.43;100.00
10071;BME280;5074;53.720;10.014;2023-06-24T11:27:25;101957.72;;;22.48;100.00
10071;BME280;5074;53.720;10.014;2023-06-24T11:29:56;101960.53;;;22.74;100.00
10071;BME280;5074;53.720;10.014;2023-06-24T11:32:35;101961.38;;;22.61;100.00
10071;BME280;5074;53.720;10.014;2023-06-24T11:35:05;101958.91;;;22.71;100.00
10071;BME280;5074;53.720;10.014;2023-06-24T11:37:33;101959.16;;;22.81;100.00
10071;BME280;5074;53.720;10.014;2023-06-24T11:40:02;101952.75;;;22.67;100.00
10071;BME280;5074;53.720;10.014;2023-06-24T11:42:32;101948.34;;;22.92;100.00
10071;BME280;5074;53.720;10.014;2023-06-24T11:45:02;101949.47;;;22.89;100.00
10071;BME280;5074;53.720;10.014;2023-06-24T11:47:34;101945.88;;;23.02;100.00
10071;BME280;5074;53.720;10.014;2023-06-24T11:50:04;101948.78;;;23.26;100.00
10071;BME280;5074;53.720;10.014;2023-06-24T11:52:37;101949.88;;;23.36;100.00
10071;BME280;5074;53.720;10.014;2023-06-24T11:55:11;101947.13;;;23.23;100.00
10071;BME280;5074;53.720;10.014;2023-06-24T11:57:47;101941.22;;;23.42;100.00
10071;BME280;5074;53.720;10.014;2023-06-24T12:00:19;101949.19;;;23.71;100.00
10071;BME280;5074;53.720;10.014;2023-06-24T12:02:50;101948.94;;;23.74;100.00
10071;BME280;5074;53.720;10.014;2023-06-24T12:05:23;101938.00;;;24.00;100.00
10071;BME280;5074;53.720;10.014;2023-06-24T12:07:54;101943.19;;;23.92;100.00
10071;BME280;5074;53.720;10.014;2023-06-24T12:10:23;101930.28;;;23.94;100.00
10071;BME280;5074;53.720;10.014;2023-06-24T12:12:51;101930.94;;;23.85;100.00
10071;BME280;5074;53.720;10.014;2023-06-24T12:15:21;101926.16;;;24.25;100.00
10071;BME280;5074;53.720;10.014;2023-06-24T12:17:49;101919.00;;;24.36;100.00
10071;BME280;5074;53.720;10.014;2023-06-24T12:20:17;101922.81;;;24.09;100.00
10071;BME280;5074;53.720;10.014;2023-06-24T12:22:47;101930.84;;;23.99;100.00
10071;BME280;5074;53.720;10.014;2023-06-24T12:25:16;101928.97;;;24.00;100.00
10071;BME280;5074;53.720;10.014;2023-06-24T12:27:44;101925.63;;;24.44;100.00
10071;BME280;5074;53.720;10.014;2023-06-24T12:30:14;101928.94;;;24.13;100.00
10071;BME280;5074;53.720;10.014;2023-06-24T12:32:44;101922.06;;;24.07;100.00
10071;BME280;5074;53.720;10.014;2023-06-24T12:35:13;101923.59;;;24.11;100.00
10071;BME280;5074;53.720;10.014;2023-06-24T12:37:41;101922.13;;;24.67;100.00
10071;BME280;5074;53.720;10.014;2023-06-24T12:40:09;101932.00;;;25.27;99.11
10071;BME280;5074;53.720;10.014;2023-06-24T12:42:37;101917.91;;;26.34;92.17
10071;BME280;5074;53.720;10.014;2023-06-24T12:45:07;101919.31;;;26.17;91.84
10071;BME280;5074;53.720;10.014;2023-06-24T12:47:35;101924.59;;;25.52;96.41
10071;BME280;5074;53.720;10.014;2023-06-24T12:50:06;101920.63;;;25.34;98.59
10071;BME280;5074;53.720;10.014;2023-06-24T12:52:35;101919.50;;;25.59;98.51
10071;BME280;5074;53.720;10.014;2023-06-24T12:55:05;101907.91;;;26.00;94.22
10071;BME280;5074;53.720;10.014;2023-06-24T12:57:35;101912.50;;;25.43;97.35